sensor_id;sensor_type;location;lat;lon;timestamp;P1;durP1;ratioP1;P2;durP2;ratioP2
61009;SDS011;46897;55.340;86.082;2022-07-21T00:02:02;16.05;;;8.85;;
61009;SDS011;46897;55.340;86.082;2022-07-21T00:04:34;15.85;;;8.60;;
61009;SDS011;46897;55.340;86.082;2022-07-21T00:07:04;15.80;;;7.88;;
61009;SDS011;46897;55.340;86.082;2022-07-21T00:09:33;17.48;;;11.60;;
61009;SDS011;46897;55.340;86.082;2022-07-21T00:12:04;15.75;;;8.90;;
61009;SDS011;46897;55.340;86.082;2022-07-21T00:14:34;17.27;;;8.40;;
61009;SDS011;46897;55.340;86.082;2022-07-21T00:17:04;13.52;;;8.43;;
61009;SDS011;46897;55.340;86.082;2022-07-21T00:19:35;16.17;;;8.30;;
61009;SDS011;46897;55.340;86.082;2022-07-21T10:07:15;14.35;;;10.70;;
61009;SDS011;46897;55.340;86.082;2022-07-21T10:09:46;16.00;;;10.68;;
61009;SDS011;46897;55.340;86.082;2022-07-21T10:12:17;14.20;;;9.93;;
61009;SDS011;46897;55.340;86.082;2022-07-21T10:14:46;12.75;;;10.00;;
61009;SDS011;46897;55.340;86.082;2022-07-21T10:17:16;13.43;;;9.93;;
61009;SDS011;46897;55.340;86.082;2022-07-21T10:19:57;14.55;;;10.65;;
61009;SDS011;46897;55.340;86.082;2022-07-21T10:22:44;15.85;;;10.93;;
61009;SDS011;46897;55.340;86.082;2022-07-21T10:25:25;13.95;;;10.43;;
61009;SDS011;46897;55.340;86.082;2022-07-21T10:34:02;13.68;;;9.98;;
61009;SDS011;46897;55.340;86.082;2022-07-21T10:39:25;14.75;;;10.48;;
61009;SDS011;46897;55.340;86.082;2022-07-21T10:41:56;14.93;;;10.30;;
61009;SDS011;46897;55.340;86.082;2022-07-21T10:44:38;12.93;;;10.15;;
61009;SDS011;46897;55.340;86.082;2022-07-21T10:47:15;13.23;;;10.52;;
61009;SDS011;46897;55.340;86.082;2022-07-21T10:49:48;14.77;;;10.65;;
61009;SDS011;46897;55.340;86.082;2022-07-21T10:55:27;18.02;;;10.75;;
61009;SDS011;46897;55.340;86.082;2022-07-21T11:00:47;15.88;;;11.18;;
61009;SDS011;46897;55.340;86.082;2022-07-21T11:03:19;17.30;;;10.73;;
61009;SDS011;46897;55.340;86.082;2022-07-21T11:06:14;16.38;;;10.82;;
61009;SDS011;46897;55.340;86.082;2022-07-21T11:09:05;16.05;;;11.07;;
61009;SDS011;46897;55.340;86.082;2022-07-21T11:11:37;17.15;;;11.77;;
61009;SDS011;46897;55.340;86.082;2022-07-21T11:14:10;15.98;;;11.38;;
61009;SDS011;46897;55.340;86.082;2022-07-21T11:19:38;16.70;;;10.63;;
61009;SDS011;46897;55.340;86.082;2022-07-21T11:22:10;17.15;;;11.90;;
61009;SDS011;46897;55.340;86.082;2022-07-21T11:24:41;15.50;;;10.50;;
61009;SDS011;46897;55.340;86.082;2022-07-21T11:27:14;15.48;;;12.07;;
61009;SDS011;46897;55.340;86.082;2022-07-21T11:29:53;17.25;;;11.18;;
61009;SDS011;46897;55.340;86.082;2022-07-21T11:32:27;18.17;;;11.63;;
61009;SDS011;46897;55.340;86.082;2022-07-21T11:35:01;18.20;;;11.77;;
61009;SDS011;46897;55.340;86.082;2022-07-21T11:37:37;15.18;;;11.35;;
61009;SDS011;46897;55.340;86.082;2022-07-21T11:40:12;20.10;;;11.73;;
61009;SDS011;46897;55.340;86.082;2022-07-21T11:42:45;16.60;;;10.15;;
61009;SDS011;46897;55.340;86.082;2022-07-21T11:45:22;18.17;;;12.55;;
61009;SDS011;46897;55.340;86.082;2022-07-21T11:47:54;14.77;;;11.52;;
61009;SDS011;46897;55.340;86.082;2022-07-21T11:50:23;17.10;;;11.43;;
61009;SDS011;46897;55.340;86.082;2022-07-21T11:52:59;18.98;;;12.07;;
61009;SDS011;46897;55.340;86.082;2022-07-21T11:55:45;29.10;;;21.67;;
61009;SDS011;46897;55.340;86.082;2022-07-21T12:01:10;19.88;;;12.65;;
61009;SDS011;46897;55.340;86.082;2022-07-21T12:03:46;24.50;;;14.63;;
61009;SDS011;46897;55.340;86.082;2022-07-21T12:06:20;25.52;;;16.50;;
61009;SDS011;46897;55.340;86.082;2022-07-21T12:08:50;18.48;;;12.57;;
61009;SDS011;46897;55.340;86.082;2022-07-21T12:11:21;19.85;;;13.82;;
61009;SDS011;46897;55.340;86.082;2022-07-21T12:14:05;18.05;;;12.13;;
61009;SDS011;46897;55.340;86.082;2022-07-21T12:16:52;17.83;;;12.23;;
61009;SDS011;46897;55.340;86.082;2022-07-21T12:19:22;18.35;;;13.07;;
61009;SDS011;46897;55.340;86.082;2022-07-21T12:21:52;16.33;;;12.15;;
61009;SDS011;46897;55.340;86.082;2022-07-21T12:24:22;20.10;;;12.43;;
61009;SDS011;46897;55.340;86.082;2022-07-21T12:27:11;19.00;;;12.95;;
61009;SDS011;46897;55.340;86.082;2022-07-21T12:29:42;16.73;;;13.25;;
61009;SDS011;46897;55.340;86.082;2022-07-21T12:32:12;16.83;;;12.13;;
61009;SDS011;46897;55.340;86.082;2022-07-21T12:34:49;19.30;;;11.93;;
61009;SDS011;46897;55.340;86.082;2022-07-21T12:37:19;17.95;;;12.90;;
61009;SDS011;46897;55.340;86.082;2022-07-21T12:40:10;17.20;;;12.10;;
61009;SDS011;46897;55.340;86.082;2022-07-21T12:42:39;17.83;;;11.80;;
61009;SDS011;46897;55.340;86.082;2022-07-21T12:45:14;19.90;;;13.25;;
61009;SDS011;46897;55.340;86.082;2022-07-21T12:50:35;20.92;;;14.00;;
61009;SDS011;46897;55.340;86.082;2022-07-21T12:53:07;26.10;;;18.20;;
61009;SDS011;46897;55.340;86.082;2022-07-21T12:55:37;18.50;;;12.95;;
61009;SDS011;46897;55.340;86.082;2022-07-21T12:58:07;19.33;;;13.30;;
61009;SDS011;46897;55.340;86.082;2022-07-21T13:00:38;26.70;;;16.27;;
61009;SDS011;46897;55.340;86.082;2022-07-21T13:03:07;17.40;;;11.70;;
61009;SDS011;46897;55.340;86.082;2022-07-21T13:05:37;18.92;;;12.65;;
61009;SDS011;46897;55.340;86.082;2022-07-21T13:08:06;21.10;;;14.15;;
61009;SDS011;46897;55.340;86.082;2022-07-21T13:10:36;23.10;;;14.00;;
61009;SDS011;46897;55.340;86.082;2022-07-21T13:13:05;19.92;;;12.90;;
61009;SDS011;46897;55.340;86.082;2022-07-21T13:15:39;27.35;;;17.05;;
61009;SDS011;46897;55.340;86.082;2022-07-21T13:18:14;24.02;;;16.23;;
61009;SDS011;46897;55.340;86.082;2022-07-21T13:20:51;25.02;;;14.82;;
61009;SDS011;46897;55.340;86.082;2022-07-21T13:23:23;23.77;;;15.93;;
61009;SDS011;46897;55.340;86.082;2022-07-21T13:25:52;20.70;;;13.23;;
61009;SDS011;46897;55.340;86.082;2022-07-21T13:28:31;21.40;;;14.10;;
61009;SDS011;46897;55.340;86.082;2022-07-21T13:31:06;21.88;;;14.27;;
61009;SDS011;46897;55.340;86.082;2022-07-21T13:33:39;26.73;;;14.88;;
61009;SDS011;46897;55.340;86.082;2022-07-21T13:36:20;21.95;;;14.52;;
61009;SDS011;46897;55.340;86.082;2022-07-21T13:38:51;30.55;;;16.77;;
61009;SDS011;46897;55.340;86.082;2022-07-21T13:41:40;30.10;;;16.85;;
61009;SDS011;46897;55.340;86.082;2022-07-21T13:44:30;23.63;;;14.95;;
61009;SDS011;46897;55.340;86.082;2022-07-21T13:47:01;26.05;;;15.05;;
61009;SDS011;46897;55.340;86.082;2022-07-21T13:49:31;22.23;;;14.63;;
61009;SDS011;46897;55.340;86.082;2022-07-21T13:52:01;27.75;;;15.60;;
61009;SDS011;46897;55.340;86.082;2022-07-21T13:54:34;29.85;;;15.40;;
61009;SDS011;46897;55.340;86.082;2022-07-21T13:57:03;33.00;;;18.23;;
61009;SDS011;46897;55.340;86.082;2022-07-21T13:59:33;66.90;;;41.72;;
61009;SDS011;46897;55.340;86.082;2022-07-21T14:02:05;27.50;;;14.95;;
61009;SDS011;46897;55.340;86.082;2022-07-21T14:04:39;28.63;;;16.77;;
61009;SDS011;46897;55.340;86.082;2022-07-21T14:07:14;31.75;;;15.68;;
61009;SDS011;46897;55.340;86.082;2022-07-21T14:09:48;28.25;;;15.45;;
61009;SDS011;46897;55.340;86.082;2022-07-21T14:12:18;21.75;;;15.05;;
61009;SDS011;46897;55.340;86.082;2022-07-21T14:15:10;28.45;;;15.88;;
61009;SDS011;46897;55.340;86.082;2022-07-21T14:17:41;30.90;;;17.00;;
61009;SDS011;46897;55.340;86.082;2022-07-21T14:20:23;26.92;;;15.98;;
61009;SDS011;46897;55.340;86.082;2022-07-21T14:22:53;32.50;;;18.77;;
61009;SDS011;46897;55.340;86.082;2022-07-21T14:25:22;32.45;;;17.65;;
61009;SDS011;46897;55.340;86.082;2022-07-21T14:27:52;32.95;;;17.10;;
61009;SDS011;46897;55.340;86.082;2022-07-21T14:30:23;28.85;;;16.45;;
61009;SDS011;46897;55.340;86.082;2022-07-21T14:32:55;33.25;;;18.25;;
61009;SDS011;46897;55.340;86.082;2022-07-21T14:35:24;27.15;;;17.92;;
61009;SDS011;46897;55.340;86.082;2022-07-21T14:37:54;28.50;;;17.25;;
61009;SDS011;46897;55.340;86.082;2022-07-21T14:40:23;28.50;;;16.95;;
61009;SDS011;46897;55.340;86.082;2022-07-21T14:42:53;27.58;;;15.85;;
61009;SDS011;46897;55.340;86.082;2022-07-21T14:45:22;35.55;;;18.13;;
61009;SDS011;46897;55.340;86.082;2022-07-21T14:47:52;30.20;;;18.02;;
61009;SDS011;46897;55.340;86.082;2022-07-21T14:50:25;34.28;;;17.88;;
61009;SDS011;46897;55.340;86.082;2022-07-21T14:52:55;26.42;;;16.75;;
61009;SDS011;46897;55.340;86.082;2022-07-21T14:55:26;28.02;;;16.98;;
61009;SDS011;46897;55.340;86.082;2022-07-21T14:57:57;29.70;;;17.98;;
61009;SDS011;46897;55.340;86.082;2022-07-21T15:00:26;34.33;;;17.98;;
61009;SDS011;46897;55.340;86.082;2022-07-21T15:02:56;53.25;;;27.05;;
61009;SDS011;46897;55.340;86.082;2022-07-21T15:05:27;38.80;;;19.75;;
61009;SDS011;46897;55.340;86.082;2022-07-21T15:07:56;39.20;;;19.73;;
61009;SDS011;46897;55.340;86.082;2022-07-21T15:10:25;27.63;;;16.15;;
61009;SDS011;46897;55.340;86.082;2022-07-21T15:12:55;30.48;;;18.00;;
61009;SDS011;46897;55.340;86.082;2022-07-21T15:15:24;29.95;;;17.63;;
61009;SDS011;46897;55.340;86.082;2022-07-21T15:18:02;30.88;;;17.90;;
61009;SDS011;46897;55.340;86.082;2022-07-21T15:20:33;31.17;;;16.98;;
61009;SDS011;46897;55.340;86.082;2022-07-21T15:23:02;33.63;;;20.40;;
61009;SDS011;46897;55.340;86.082;2022-07-21T15:25:32;28.73;;;16.17;;
61009;SDS011;46897;55.340;86.082;2022-07-21T15:28:01;33.25;;;18.80;;
61009;SDS011;46897;55.340;86.082;2022-07-21T15:30:31;40.05;;;20.08;;
61009;SDS011;46897;55.340;86.082;2022-07-21T15:33:01;45.22;;;22.80;;
61009;SDS011;46897;55.340;86.082;2022-07-21T15:35:30;45.92;;;23.42;;
61009;SDS011;46897;55.340;86.082;2022-07-21T15:38:01;39.17;;;20.30;;
61009;SDS011;46897;55.340;86.082;2022-07-21T15:40:38;36.13;;;20.52;;
61009;SDS011;46897;55.340;86.082;2022-07-21T15:43:08;35.95;;;19.83;;
61009;SDS011;46897;55.340;86.082;2022-07-21T15:45:37;31.73;;;17.08;;
61009;SDS011;46897;55.340;86.082;2022-07-21T15:48:08;30.17;;;15.23;;
61009;SDS011;46897;55.340;86.082;2022-07-21T15:50:37;26.17;;;15.00;;
61009;SDS011;46897;55.340;86.082;2022-07-21T15:53:08;29.27;;;16.48;;
61009;SDS011;46897;55.340;86.082;2022-07-21T15:55:37;33.90;;;18.90;;
61009;SDS011;46897;55.340;86.082;2022-07-21T15:58:14;30.80;;;17.58;;
61009;SDS011;46897;55.340;86.082;2022-07-21T16:00:43;30.92;;;17.95;;
61009;SDS011;46897;55.340;86.082;2022-07-21T16:03:12;31.05;;;17.10;;
61009;SDS011;46897;55.340;86.082;2022-07-21T16:05:41;29.15;;;15.88;;
61009;SDS011;46897;55.340;86.082;2022-07-21T16:08:12;30.60;;;16.65;;
61009;SDS011;46897;55.340;86.082;2022-07-21T16:10:42;30.17;;;17.00;;
61009;SDS011;46897;55.340;86.082;2022-07-21T16:13:11;31.48;;;18.13;;
61009;SDS011;46897;55.340;86.082;2022-07-21T16:15:41;27.90;;;16.40;;
61009;SDS011;46897;55.340;86.082;2022-07-21T16:18:10;26.83;;;14.85;;
61009;SDS011;46897;55.340;86.082;2022-07-21T16:20:40;25.63;;;14.20;;
61009;SDS011;46897;55.340;86.082;2022-07-21T16:23:09;27.70;;;16.08;;
61009;SDS011;46897;55.340;86.082;2022-07-21T16:25:39;56.40;;;33.60;;
61009;SDS011;46897;55.340;86.082;2022-07-21T16:28:09;41.30;;;22.73;;
61009;SDS011;46897;55.340;86.082;2022-07-21T16:30:38;26.95;;;14.60;;
61009;SDS011;46897;55.340;86.082;2022-07-21T16:33:07;25.35;;;15.15;;
61009;SDS011;46897;55.340;86.082;2022-07-21T16:35:37;27.90;;;15.10;;
61009;SDS011;46897;55.340;86.082;2022-07-21T16:38:06;32.13;;;16.25;;
61009;SDS011;46897;55.340;86.082;2022-07-21T16:40:43;26.90;;;16.13;;
61009;SDS011;46897;55.340;86.082;2022-07-21T16:43:13;29.60;;;16.33;;
61009;SDS011;46897;55.340;86.082;2022-07-21T16:45:42;27.23;;;15.02;;
61009;SDS011;46897;55.340;86.082;2022-07-21T16:48:12;25.23;;;14.77;;
61009;SDS011;46897;55.340;86.082;2022-07-21T16:50:41;24.38;;;14.07;;
61009;SDS011;46897;55.340;86.082;2022-07-21T16:53:10;25.85;;;13.57;;
61009;SDS011;46897;55.340;86.082;2022-07-21T16:55:40;24.50;;;14.43;;
61009;SDS011;46897;55.340;86.082;2022-07-21T16:58:10;29.25;;;15.80;;
61009;SDS011;46897;55.340;86.082;2022-07-21T17:00:40;24.48;;;14.95;;
61009;SDS011;46897;55.340;86.082;2022-07-21T17:03:09;31.30;;;16.70;;
61009;SDS011;46897;55.340;86.082;2022-07-21T17:05:38;26.15;;;14.23;;
61009;SDS011;46897;55.340;86.082;2022-07-21T17:08:07;26.23;;;14.60;;
61009;SDS011;46897;55.340;86.082;2022-07-21T17:10:37;28.33;;;14.20;;
61009;SDS011;46897;55.340;86.082;2022-07-21T17:13:06;27.55;;;15.05;;
61009;SDS011;46897;55.340;86.082;2022-07-21T17:15:37;26.02;;;15.00;;
61009;SDS011;46897;55.340;86.082;2022-07-21T17:18:06;26.05;;;14.63;;
61009;SDS011;46897;55.340;86.082;2022-07-21T17:20:35;29.25;;;15.38;;
61009;SDS011;46897;55.340;86.082;2022-07-21T17:23:05;25.08;;;14.40;;
61009;SDS011;46897;55.340;86.082;2022-07-21T17:25:34;26.50;;;14.50;;
61009;SDS011;46897;55.340;86.082;2022-07-21T17:28:03;30.10;;;15.63;;
61009;SDS011;46897;55.340;86.082;2022-07-21T17:30:33;35.15;;;18.50;;
61009;SDS011;46897;55.340;86.082;2022-07-21T17:33:03;24.67;;;13.77;;
61009;SDS011;46897;55.340;86.082;2022-07-21T17:35:33;21.23;;;12.75;;
61009;SDS011;46897;55.340;86.082;2022-07-21T17:38:02;25.20;;;14.90;;
61009;SDS011;46897;55.340;86.082;2022-07-21T17:40:32;26.90;;;14.52;;
61009;SDS011;46897;55.340;86.082;2022-07-21T17:43:02;24.05;;;13.18;;
61009;SDS011;46897;55.340;86.082;2022-07-21T17:45:32;27.63;;;13.93;;
61009;SDS011;46897;55.340;86.082;2022-07-21T17:48:01;21.55;;;13.02;;
61009;SDS011;46897;55.340;86.082;2022-07-21T17:50:38;23.63;;;14.02;;
61009;SDS011;46897;55.340;86.082;2022-07-21T17:53:07;19.63;;;12.00;;
61009;SDS011;46897;55.340;86.082;2022-07-21T17:55:37;23.08;;;12.88;;
61009;SDS011;46897;55.340;86.082;2022-07-21T17:58:07;22.13;;;12.23;;
61009;SDS011;46897;55.340;86.082;2022-07-21T18:00:53;21.20;;;12.40;;
61009;SDS011;46897;55.340;86.082;2022-07-21T18:03:25;21.45;;;12.25;;
61009;SDS011;46897;55.340;86.082;2022-07-21T18:05:54;23.65;;;13.10;;
61009;SDS011;46897;55.340;86.082;2022-07-21T18:08:24;23.02;;;12.32;;
61009;SDS011;46897;55.340;86.082;2022-07-21T18:10:53;24.35;;;13.02;;
61009;SDS011;46897;55.340;86.082;2022-07-21T18:13:23;20.50;;;12.40;;
61009;SDS011;46897;55.340;86.082;2022-07-21T18:15:52;23.55;;;11.60;;
61009;SDS011;46897;55.340;86.082;2022-07-21T18:18:22;23.92;;;12.10;;
61009;SDS011;46897;55.340;86.082;2022-07-21T18:20:53;21.58;;;11.88;;
61009;SDS011;46897;55.340;86.082;2022-07-21T18:23:22;17.40;;;11.25;;
61009;SDS011;46897;55.340;86.082;2022-07-21T18:25:52;20.73;;;11.10;;
61009;SDS011;46897;55.340;86.082;2022-07-21T18:28:21;19.95;;;11.23;;
61009;SDS011;46897;55.340;86.082;2022-07-21T18:30:51;19.75;;;12.05;;
61009;SDS011;46897;55.340;86.082;2022-07-21T18:33:20;25.92;;;11.77;;
61009;SDS011;46897;55.340;86.082;2022-07-21T18:35:49;18.02;;;11.07;;
61009;SDS011;46897;55.340;86.082;2022-07-21T18:38:20;20.75;;;11.68;;
61009;SDS011;46897;55.340;86.082;2022-07-21T18:40:49;17.02;;;11.40;;
61009;SDS011;46897;55.340;86.082;2022-07-21T18:43:18;20.65;;;11.60;;
61009;SDS011;46897;55.340;86.082;2022-07-21T18:45:47;19.35;;;11.45;;
61009;SDS011;46897;55.340;86.082;2022-07-21T18:48:17;20.13;;;11.77;;
61009;SDS011;46897;55.340;86.082;2022-07-21T18:51:06;16.38;;;10.82;;
61009;SDS011;46897;55.340;86.082;2022-07-21T18:53:38;19.25;;;11.85;;
61009;SDS011;46897;55.340;86.082;2022-07-21T18:56:07;20.95;;;12.15;;
61009;SDS011;46897;55.340;86.082;2022-07-21T18:58:38;20.67;;;11.15;;
61009;SDS011;46897;55.340;86.082;2022-07-21T19:01:07;20.08;;;11.60;;
61009;SDS011;46897;55.340;86.082;2022-07-21T19:03:38;22.02;;;11.55;;
61009;SDS011;46897;55.340;86.082;2022-07-21T19:06:07;20.23;;;12.07;;
61009;SDS011;46897;55.340;86.082;2022-07-21T19:08:39;21.17;;;12.35;;
61009;SDS011;46897;55.340;86.082;2022-07-21T19:11:08;19.83;;;12.50;;
61009;SDS011;46897;55.340;86.082;2022-07-21T19:13:38;21.70;;;11.80;;
61009;SDS011;46897;55.340;86.082;2022-07-21T19:16:08;18.60;;;10.90;;
61009;SDS011;46897;55.340;86.082;2022-07-21T19:18:37;18.60;;;10.93;;
61009;SDS011;46897;55.340;86.082;2022-07-21T19:21:06;19.20;;;10.35;;
61009;SDS011;46897;55.340;86.082;2022-07-21T19:23:40;17.20;;;10.82;;
61009;SDS011;46897;55.340;86.082;2022-07-21T19:26:09;17.20;;;10.30;;
61009;SDS011;46897;55.340;86.082;2022-07-21T19:28:39;18.35;;;11.40;;
61009;SDS011;46897;55.340;86.082;2022-07-21T19:31:08;17.75;;;10.77;;
61009;SDS011;46897;55.340;86.082;2022-07-21T19:33:37;20.10;;;11.15;;
61009;SDS011;46897;55.340;86.082;2022-07-21T19:36:07;18.10;;;11.45;;
61009;SDS011;46897;55.340;86.082;2022-07-21T19:38:36;19.55;;;12.05;;
61009;SDS011;46897;55.340;86.082;2022-07-21T19:41:07;18.17;;;10.82;;
61009;SDS011;46897;55.340;86.082;2022-07-21T19:43:36;18.67;;;11.05;;
61009;SDS011;46897;55.340;86.082;2022-07-21T19:46:05;19.70;;;10.88;;
61009;SDS011;46897;55.340;86.082;2022-07-21T19:48:35;17.95;;;10.82;;
61009;SDS011;46897;55.340;86.082;2022-07-21T19:51:04;19.33;;;11.85;;
61009;SDS011;46897;55.340;86.082;2022-07-21T19:53:33;20.38;;;11.88;;
61009;SDS011;46897;55.340;86.082;2022-07-21T19:56:03;18.27;;;10.50;;
61009;SDS011;46897;55.340;86.082;2022-07-21T19:58:34;18.58;;;10.65;;
61009;SDS011;46897;55.340;86.082;2022-07-21T20:01:04;21.75;;;11.43;;
61009;SDS011;46897;55.340;86.082;2022-07-21T20:03:33;21.63;;;10.70;;
61009;SDS011;46897;55.340;86.082;2022-07-21T20:06:03;20.00;;;10.68;;
61009;SDS011;46897;55.340;86.082;2022-07-21T20:08:32;17.17;;;8.77;;
61009;SDS011;46897;55.340;86.082;2022-07-21T20:11:01;16.60;;;9.60;;
61009;SDS011;46897;55.340;86.082;2022-07-21T20:13:31;17.38;;;10.38;;
61009;SDS011;46897;55.340;86.082;2022-07-21T20:16:01;20.25;;;11.30;;
61009;SDS011;46897;55.340;86.082;2022-07-21T20:18:31;18.45;;;10.60;;
61009;SDS011;46897;55.340;86.082;2022-07-21T20:21:00;20.48;;;11.10;;
61009;SDS011;46897;55.340;86.082;2022-07-21T20:23:30;20.45;;;11.57;;
61009;SDS011;46897;55.340;86.082;2022-07-21T20:26:00;21.08;;;11.30;;
61009;SDS011;46897;55.340;86.082;2022-07-21T20:28:49;18.40;;;10.43;;
61009;SDS011;46897;55.340;86.082;2022-07-21T20:31:20;17.85;;;10.38;;
61009;SDS011;46897;55.340;86.082;2022-07-21T20:33:49;21.80;;;11.07;;
61009;SDS011;46897;55.340;86.082;2022-07-21T20:36:19;18.85;;;10.15;;
61009;SDS011;46897;55.340;86.082;2022-07-21T20:38:48;19.23;;;10.18;;
61009;SDS011;46897;55.340;86.082;2022-07-21T20:41:18;18.30;;;10.63;;
61009;SDS011;46897;55.340;86.082;2022-07-21T20:43:47;18.08;;;10.57;;
61009;SDS011;46897;55.340;86.082;2022-07-21T20:46:17;20.58;;;10.65;;
61009;SDS011;46897;55.340;86.082;2022-07-21T20:48:48;20.33;;;10.75;;
61009;SDS011;46897;55.340;86.082;2022-07-21T20:51:18;19.58;;;10.07;;
61009;SDS011;46897;55.340;86.082;2022-07-21T20:53:47;18.58;;;10.70;;
61009;SDS011;46897;55.340;86.082;2022-07-21T20:56:16;18.38;;;10.48;;
61009;SDS011;46897;55.340;86.082;2022-07-21T20:59:05;20.73;;;10.95;;
61009;SDS011;46897;55.340;86.082;2022-07-21T21:01:35;18.42;;;10.77;;
61009;SDS011;46897;55.340;86.082;2022-07-21T21:04:05;20.33;;;10.55;;
61009;SDS011;46897;55.340;86.082;2022-07-21T21:06:39;19.92;;;11.38;;
61009;SDS011;46897;55.340;86.082;2022-07-21T21:09:08;21.45;;;10.38;;
61009;SDS011;46897;55.340;86.082;2022-07-21T21:11:37;23.88;;;11.45;;
61009;SDS011;46897;55.340;86.082;2022-07-21T21:14:06;21.52;;;11.48;;
61009;SDS011;46897;55.340;86.082;2022-07-21T21:16:36;23.02;;;11.70;;
61009;SDS011;46897;55.340;86.082;2022-07-21T21:19:06;21.15;;;12.00;;
61009;SDS011;46897;55.340;86.082;2022-07-21T21:21:36;19.98;;;10.90;;
61009;SDS011;46897;55.340;86.082;2022-07-21T21:24:06;22.58;;;12.60;;
61009;SDS011;46897;55.340;86.082;2022-07-21T21:26:35;18.55;;;10.68;;
61009;SDS011;46897;55.340;86.082;2022-07-21T21:29:04;20.00;;;10.93;;
61009;SDS011;46897;55.340;86.082;2022-07-21T21:31:33;18.92;;;10.82;;
61009;SDS011;46897;55.340;86.082;2022-07-21T21:34:03;16.90;;;10.88;;
61009;SDS011;46897;55.340;86.082;2022-07-21T21:36:34;20.48;;;12.27;;
61009;SDS011;46897;55.340;86.082;2022-07-21T21:39:03;18.42;;;10.55;;
61009;SDS011;46897;55.340;86.082;2022-07-21T21:41:33;19.00;;;10.85;;
61009;SDS011;46897;55.340;86.082;2022-07-21T21:44:03;22.02;;;11.55;;
61009;SDS011;46897;55.340;86.082;2022-07-21T21:46:32;19.08;;;11.43;;
61009;SDS011;46897;55.340;86.082;2022-07-21T21:49:02;19.83;;;11.68;;
61009;SDS011;46897;55.340;86.082;2022-07-21T21:51:31;19.98;;;11.18;;
61009;SDS011;46897;55.340;86.082;2022-07-21T21:54:02;22.27;;;11.68;;
61009;SDS011;46897;55.340;86.082;2022-07-21T21:56:31;18.88;;;11.23;;
61009;SDS011;46897;55.340;86.082;2022-07-21T21:59:00;20.73;;;12.05;;
61009;SDS011;46897;55.340;86.082;2022-07-21T22:01:30;21.70;;;11.25;;
61009;SDS011;46897;55.340;86.082;2022-07-21T22:03:59;21.77;;;11.30;;
61009;SDS011;46897;55.340;86.082;2022-07-21T22:06:28;19.92;;;10.95;;
61009;SDS011;46897;55.340;86.082;2022-07-21T22:08:57;18.20;;;11.43;;
61009;SDS011;46897;55.340;86.082;2022-07-21T22:11:28;19.45;;;11.35;;
61009;SDS011;46897;55.340;86.082;2022-07-21T22:13:57;18.42;;;11.40;;
61009;SDS011;46897;55.340;86.082;2022-07-21T22:16:27;20.17;;;10.98;;
61009;SDS011;46897;55.340;86.082;2022-07-21T22:18:56;18.48;;;11.50;;
61009;SDS011;46897;55.340;86.082;2022-07-21T22:21:26;17.65;;;11.38;;
61009;SDS011;46897;55.340;86.082;2022-07-21T22:23:57;17.77;;;11.23;;
61009;SDS011;46897;55.340;86.082;2022-07-21T22:26:29;20.40;;;11.95;;
61009;SDS011;46897;55.340;86.082;2022-07-21T22:29:00;17.67;;;11.43;;
61009;SDS011;46897;55.340;86.082;2022-07-21T22:31:29;20.65;;;11.32;;
61009;SDS011;46897;55.340;86.082;2022-07-21T22:33:59;18.70;;;11.57;;
61009;SDS011;46897;55.340;86.082;2022-07-21T22:36:28;21.50;;;11.90;;
61009;SDS011;46897;55.340;86.082;2022-07-21T22:38:57;19.20;;;11.55;;
61009;SDS011;46897;55.340;86.082;2022-07-21T22:41:26;20.17;;;11.32;;
61009;SDS011;46897;55.340;86.082;2022-07-21T22:43:57;22.10;;;11.70;;
61009;SDS011;46897;55.340;86.082;2022-07-21T22:46:26;19.27;;;11.70;;
61009;SDS011;46897;55.340;86.082;2022-07-21T22:48:56;16.45;;;11.25;;
61009;SDS011;46897;55.340;86.082;2022-07-21T22:51:26;15.48;;;10.65;;
61009;SDS011;46897;55.340;86.082;2022-07-21T22:53:56;18.52;;;11.70;;
61009;SDS011;46897;55.340;86.082;2022-07-21T22:56:25;19.38;;;11.25;;
61009;SDS011;46897;55.340;86.082;2022-07-21T22:58:54;18.45;;;11.23;;
61009;SDS011;46897;55.340;86.082;2022-07-21T23:01:26;21.95;;;11.57;;
61009;SDS011;46897;55.340;86.082;2022-07-21T23:03:55;19.70;;;11.60;;
61009;SDS011;46897;55.340;86.082;2022-07-21T23:06:24;18.73;;;11.48;;
61009;SDS011;46897;55.340;86.082;2022-07-21T23:08:53;22.15;;;11.25;;
61009;SDS011;46897;55.340;86.082;2022-07-21T23:11:23;18.60;;;11.18;;
61009;SDS011;46897;55.340;86.082;2022-07-21T23:13:52;17.52;;;11.45;;
61009;SDS011;46897;55.340;86.082;2022-07-21T23:16:24;24.65;;;13.52;;
61009;SDS011;46897;55.340;86.082;2022-07-21T23:18:54;17.58;;;10.73;;
61009;SDS011;46897;55.340;86.082;2022-07-21T23:21:23;16.67;;;10.20;;
61009;SDS011;46897;55.340;86.082;2022-07-21T23:23:52;22.10;;;11.15;;
61009;SDS011;46897;55.340;86.082;2022-07-21T23:26:22;20.70;;;10.73;;
61009;SDS011;46897;55.340;86.082;2022-07-21T23:28:51;18.40;;;11.30;;
61009;SDS011;46897;55.340;86.082;2022-07-21T23:31:21;16.30;;;10.50;;
61009;SDS011;46897;55.340;86.082;2022-07-21T23:33:52;21.65;;;11.35;;
61009;SDS011;46897;55.340;86.082;2022-07-21T23:36:21;18.92;;;11.23;;
61009;SDS011;46897;55.340;86.082;2022-07-21T23:38:50;18.33;;;11.15;;
61009;SDS011;46897;55.340;86.082;2022-07-21T23:41:20;20.40;;;10.85;;
61009;SDS011;46897;55.340;86.082;2022-07-21T23:43:49;19.35;;;10.57;;
61009;SDS011;46897;55.340;86.082;2022-07-21T23:46:18;17.52;;;9.98;;
61009;SDS011;46897;55.340;86.082;2022-07-21T23:48:48;19.05;;;10.73;;
61009;SDS011;46897;55.340;86.082;2022-07-21T23:51:19;18.42;;;10.63;;
61009;SDS011;46897;55.340;86.082;2022-07-21T23:53:48;18.08;;;11.10;;
61009;SDS011;46897;55.340;86.082;2022-07-21T23:56:17;18.88;;;10.43;;
61009;SDS011;46897;55.340;86.082;2022-07-21T23:58:46;16.00;;;10.52;;
